createdAt,value
2023-09-30T00:00:12.730Z,100241.72
2023-09-30T00:02:39.855Z,100242.06
2023-09-30T00:05:07.237Z,100249.06
2023-09-30T00:07:34.385Z,100249.06
2023-09-30T00:10:01.747Z,100252.38
2023-09-30T00:12:29.272Z,100250.34
2023-09-30T00:14:56.234Z,100245.03
2023-09-30T00:17:23.154Z,100247.22
2023-09-30T00:19:50.296Z,100243.47
2023-09-30T00:22:17.202Z,100246.88
2023-09-30T00:24:44.244Z,100241.91
2023-09-30T00:27:11.215Z,100249.66
2023-09-30T00:29:38.162Z,100242.31
2023-09-30T00:32:05.594Z,100235.97
2023-09-30T00:34:36.307Z,100240.91
2023-09-30T00:37:03.546Z,100226.41
2023-09-30T00:39:32.132Z,100247.34
2023-09-30T00:42:02.309Z,100241.19
2023-09-30T00:44:29.422Z,100234.22
2023-09-30T00:46:56.945Z,100230.06
2023-09-30T00:49:24.851Z,100226.59
2023-09-30T00:51:53.158Z,100232.31
2023-09-30T00:54:20.754Z,100226.34
2023-09-30T00:56:48.436Z,100227.16
2023-09-30T00:59:15.780Z,100223.03
2023-09-30T01:01:46.391Z,100228.72
2023-09-30T01:04:13.905Z,100230.75
2023-09-30T01:06:41.140Z,100222.13
2023-09-30T01:09:11.177Z,100220.84
2023-09-30T01:11:38.315Z,100219.59
2023-09-30T01:14:05.281Z,100224.25
2023-09-30T01:16:32.194Z,100219.94
2023-09-30T01:18:59.230Z,100222.44
2023-09-30T01:21:27.929Z,100222.44
2023-09-30T01:23:54.947Z,100226.91
2023-09-30T01:26:21.903Z,100219.13
2023-09-30T01:28:50.020Z,100230.94
2023-09-30T01:31:17.060Z,100223.06
2023-09-30T01:33:44.035Z,100223.81
2023-09-30T01:36:11.039Z,100217.94
2023-09-30T01:38:38.089Z,100215.03
2023-09-30T01:41:05.068Z,100220.72
2023-09-30T01:43:53.218Z,100218.72
2023-09-30T01:46:20.506Z,100222.47
2023-09-30T01:48:47.444Z,100221.22
2023-09-30T01:51:14.421Z,100224.22
2023-09-30T01:53:42.060Z,100216.56
2023-09-30T01:56:09.052Z,100218.81
2023-09-30T01:58:36.008Z,100217.16
2023-09-30T02:01:06.172Z,100220.88
2023-09-30T02:03:33.309Z,100217.16
2023-09-30T02:06:00.351Z,100221.47
2023-09-30T02:08:27.351Z,100217.81
2023-09-30T02:10:54.925Z,100209.50
2023-09-30T02:13:21.813Z,100218.47
2023-09-30T02:15:49.057Z,100210.66
2023-09-30T02:18:16.148Z,100209.41
2023-09-30T02:20:43.217Z,100207.94
2023-09-30T02:23:12.004Z,100209.41
2023-09-30T02:25:39.443Z,100206.53
2023-09-30T02:28:07.360Z,100211.06
2023-09-30T02:30:34.366Z,100211.84
2023-09-30T02:33:01.691Z,100211.84
2023-09-30T02:35:28.683Z,100203.25
2023-09-30T02:37:55.687Z,100204.25
2023-09-30T02:40:26.056Z,100205.91
2023-09-30T02:42:53.379Z,100197.47
2023-09-30T02:45:21.097Z,100203.63
2023-09-30T02:47:48.428Z,100197.13
2023-09-30T02:50:15.387Z,100204.91
2023-09-30T02:52:42.411Z,100188.97
2023-09-30T02:55:10.561Z,100190.22
2023-09-30T02:57:37.564Z,100189.88
2023-09-30T03:00:24.006Z,100190.69
2023-09-30T03:02:52.170Z,100188.22
2023-09-30T03:05:19.677Z,100189.03
2023-09-30T03:07:46.946Z,100188.22
2023-09-30T03:10:21.545Z,100181.72
2023-09-30T03:12:49.246Z,100177.84
2023-09-30T03:15:16.813Z,100182.81
2023-09-30T03:17:43.808Z,100176.47
2023-09-30T03:20:13.349Z,100182.16
2023-09-30T03:22:41.611Z,100181.91
2023-09-30T03:25:09.844Z,100181.16
2023-09-30T03:27:37.564Z,100180.03
2023-09-30T03:30:06.928Z,100176.22
2023-09-30T03:32:34.809Z,100177.91
2023-09-30T03:35:02.233Z,100179.97
2023-09-30T03:37:32.588Z,100175.09
2023-09-30T03:39:59.588Z,100175.56
2023-09-30T03:42:26.585Z,100173.56
2023-09-30T03:44:53.486Z,100177.47
2023-09-30T03:47:20.796Z,100175.47
2023-09-30T03:49:49.449Z,100180.59
2023-09-30T03:52:16.362Z,100184.75
2023-09-30T03:54:43.352Z,100181.06
2023-09-30T03:57:12.822Z,100173.38
2023-09-30T03:59:39.756Z,100175.28
2023-09-30T04:02:07.664Z,100173.75
2023-09-30T04:04:35.692Z,100175.19
2023-09-30T04:07:02.655Z,100178.50
2023-09-30T04:09:29.549Z,100176.47
2023-09-30T04:11:56.560Z,100176.16
2023-09-30T04:14:23.451Z,100179.06
2023-09-30T04:16:50.378Z,100179.34
2023-09-30T04:19:17.683Z,100175.41
2023-09-30T04:21:44.623Z,100175.41
2023-09-30T04:24:11.571Z,100180.38
2023-09-30T04:26:38.476Z,100179.34
2023-09-30T04:29:06.128Z,100172.56
2023-09-30T04:31:33.134Z,100178.41
2023-09-30T04:34:00.364Z,100177.81
2023-09-30T04:36:27.482Z,100173.38
2023-09-30T04:38:54.393Z,100180.44
2023-09-30T04:41:22.636Z,100185.47
2023-09-30T04:43:51.005Z,100179.38
2023-09-30T04:46:21.786Z,100176.63
2023-09-30T04:48:49.988Z,100176.06
2023-09-30T04:51:19.428Z,100171.81
2023-09-30T04:53:47.674Z,100179.06
2023-09-30T04:56:14.980Z,100177.66
2023-09-30T04:58:42.080Z,100184.28
2023-09-30T05:01:10.106Z,100177.53
2023-09-30T05:03:37.485Z,100181.13
2023-09-30T05:06:04.816Z,100185.31
2023-09-30T05:08:32.163Z,100178.00
2023-09-30T05:10:59.121Z,100183.03
2023-09-30T05:13:26.109Z,100176.94
2023-09-30T05:15:53.803Z,100177.00
2023-09-30T05:18:20.879Z,100177.44
2023-09-30T05:20:47.900Z,100172.75
2023-09-30T05:23:16.016Z,100170.94
2023-09-30T05:25:44.201Z,100175.03
2023-09-30T05:28:12.921Z,100175.09
2023-09-30T05:30:40.586Z,100171.84
2023-09-30T05:33:08.181Z,100171.00
2023-09-30T05:35:35.165Z,100175.13
2023-09-30T05:38:02.208Z,100172.69
2023-09-30T05:40:31.875Z,100167.00
2023-09-30T05:43:00.276Z,100161.06
2023-09-30T05:45:28.603Z,100166.28
2023-09-30T05:47:57.743Z,100163.03
2023-09-30T05:50:28.458Z,100159.78
2023-09-30T05:52:56.703Z,100153.28
2023-09-30T05:55:24.038Z,100151.28
2023-09-30T05:57:51.435Z,100149.66
2023-09-30T06:00:29.725Z,100151.72
2023-09-30T06:02:58.091Z,100154.44
2023-09-30T06:05:25.129Z,100153.69
2023-09-30T06:07:52.069Z,100146.50
2023-09-30T06:10:21.874Z,100150.66
2023-09-30T06:12:49.645Z,100144.50
2023-09-30T06:15:17.412Z,100137.94
2023-09-30T06:17:45.133Z,100139.16
2023-09-30T06:20:17.573Z,100141.25
2023-09-30T06:22:48.635Z,100139.59
2023-09-30T06:25:17.776Z,100130.97
2023-09-30T06:27:45.789Z,100133.88
2023-09-30T06:30:14.619Z,100133.88
2023-09-30T06:32:41.863Z,100127.09
2023-09-30T06:35:11.575Z,100126.88
2023-09-30T06:37:42.110Z,100118.28
2023-09-30T06:40:10.031Z,100118.94
2023-09-30T06:42:37.157Z,100112.94
2023-09-30T06:45:07.006Z,100112.56
2023-09-30T06:47:37.917Z,100116.69
2023-09-30T06:50:08.944Z,100113.19
2023-09-30T06:52:36.690Z,100118.09
2023-09-30T06:55:05.853Z,100112.16
2023-09-30T06:57:33.936Z,100113.38
2023-09-30T07:00:00.858Z,100111.53
2023-09-30T07:02:27.863Z,100105.50
2023-09-30T07:04:54.937Z,100108.56
2023-09-30T07:07:21.956Z,100103.84
2023-09-30T07:09:49.357Z,100105.06
2023-09-30T07:12:16.486Z,100108.34
2023-09-30T07:14:43.415Z,100106.66
2023-09-30T07:17:10.385Z,100104.59
2023-09-30T07:19:37.476Z,100107.88
2023-09-30T07:22:05.497Z,100106.22
2023-09-30T07:24:32.758Z,100096.31
2023-09-30T07:27:06.472Z,100100.41
2023-09-30T07:29:40.992Z,100100.81
2023-09-30T07:32:08.591Z,100099.69
2023-09-30T07:34:35.733Z,100102.38
2023-09-30T07:37:02.719Z,100094.16
2023-09-30T07:39:30.559Z,100093.66
2023-09-30T07:41:57.504Z,100097.28
2023-09-30T07:44:24.389Z,100094.78
2023-09-30T07:46:51.358Z,100092.28
2023-09-30T07:49:18.399Z,100089.75
2023-09-30T07:51:47.407Z,100090.31
2023-09-30T07:54:30.341Z,100088.47
2023-09-30T07:56:58.912Z,100083.63
2023-09-30T07:59:26.670Z,100088.09
2023-09-30T08:01:54.089Z,100086.38
2023-09-30T08:04:23.615Z,100080.16
2023-09-30T08:06:52.298Z,100083.38
2023-09-30T08:09:19.857Z,100077.13
2023-09-30T08:11:46.965Z,100076.69
2023-09-30T08:14:13.979Z,100079.97
2023-09-30T08:16:41.576Z,100066.50
2023-09-30T08:19:08.566Z,100070.22
2023-09-30T08:21:35.642Z,100071.88
2023-09-30T08:24:03.387Z,100065.56
2023-09-30T08:26:30.504Z,100068.22
2023-09-30T08:28:57.599Z,100054.97
2023-09-30T08:31:25.597Z,100050.13
2023-09-30T08:33:53.146Z,100052.28
2023-09-30T08:36:20.253Z,100053.91
2023-09-30T08:38:47.675Z,100048.84
2023-09-30T08:41:26.904Z,100042.91
2023-09-30T08:43:57.010Z,100053.03
2023-09-30T08:46:25.682Z,100047.53
2023-09-30T08:48:53.419Z,100044.66
2023-09-30T08:51:20.427Z,100048.25
2023-09-30T08:53:47.443Z,100045.13
2023-09-30T08:56:15.608Z,100043.63
2023-09-30T08:58:43.053Z,100039.00
2023-09-30T09:01:11.673Z,100033.53
2023-09-30T09:03:38.961Z,100025.06
2023-09-30T09:06:05.963Z,100019.63
2023-09-30T09:08:34.229Z,100026.44
2023-09-30T09:11:04.828Z,100025.00
2023-09-30T09:13:50.773Z,100022.16
2023-09-30T09:16:21.255Z,100023.38
2023-09-30T09:18:55.021Z,100013.69
2023-09-30T09:21:24.939Z,100015.94
2023-09-30T09:23:56.062Z,100019.66
2023-09-30T09:26:29.140Z,100021.44
2023-09-30T09:29:01.783Z,100016.97
2023-09-30T09:31:36.200Z,100011.16
2023-09-30T09:34:15.419Z,100014.28
2023-09-30T09:36:44.373Z,100009.25
2023-09-30T09:39:14.940Z,100005.63
2023-09-30T09:41:54.556Z,100002.88
2023-09-30T09:44:24.820Z,99994.59
2023-09-30T09:46:52.141Z,100004.25
2023-09-30T09:49:19.725Z,100004.41
2023-09-30T09:51:49.595Z,99995.88
2023-09-30T09:54:17.210Z,99993.50
2023-09-30T09:56:47.193Z,99994.31
2023-09-30T09:59:14.570Z,99987.19
2023-09-30T10:01:42.644Z,99988.41
2023-09-30T10:04:12.209Z,99990.28
2023-09-30T10:06:42.602Z,99989.38
2023-09-30T10:09:11.456Z,99989.50
2023-09-30T10:11:41.728Z,99994.50
2023-09-30T10:14:15.698Z,99993.22
2023-09-30T10:16:45.425Z,99980.84
2023-09-30T10:19:13.387Z,99976.94
2023-09-30T10:21:40.736Z,99975.16
2023-09-30T10:24:31.169Z,99984.19
2023-09-30T10:27:17.473Z,99975.03
2023-09-30T10:29:44.408Z,99971.09
2023-09-30T10:32:11.418Z,99973.97
2023-09-30T10:34:39.119Z,99965.88
2023-09-30T10:37:21.661Z,99960.00
2023-09-30T10:39:54.980Z,99957.66
2023-09-30T10:42:40.918Z,99960.91
2023-09-30T10:45:08.699Z,99961.41
2023-09-30T10:47:36.411Z,99961.28
2023-09-30T10:50:03.731Z,99958.13
2023-09-30T10:52:31.574Z,99956.63
2023-09-30T10:55:08.525Z,99949.50
2023-09-30T10:57:35.522Z,99949.47
2023-09-30T11:00:12.768Z,99943.31
2023-09-30T11:02:52.821Z,99949.75
2023-09-30T11:05:32.046Z,99942.22
2023-09-30T11:08:04.442Z,99943.69
2023-09-30T11:10:31.413Z,99935.81
2023-09-30T11:12:59.004Z,99939.56
2023-09-30T11:15:26.274Z,99936.53
2023-09-30T11:17:53.392Z,99921.22
2023-09-30T11:20:21.962Z,99925.09
2023-09-30T11:22:49.801Z,99930.69
2023-09-30T11:25:20.269Z,99922.81
2023-09-30T11:27:48.078Z,99929.41
2023-09-30T11:30:15.791Z,99914.91
2023-09-30T11:32:43.783Z,99917.81
2023-09-30T11:35:12.448Z,99917.84
2023-09-30T11:37:42.276Z,99919.91
2023-09-30T11:40:15.330Z,99913.69
2023-09-30T11:42:45.761Z,99891.72
2023-09-30T11:45:23.883Z,99900.28
2023-09-30T11:47:51.264Z,99899.34
2023-09-30T11:50:19.312Z,99896.88
2023-09-30T11:52:49.295Z,99899.97
2023-09-30T11:55:17.877Z,99892.94
2023-09-30T11:57:48.869Z,99898.91
2023-09-30T12:00:17.907Z,99896.59
2023-09-30T12:02:45.934Z,99886.28
2023-09-30T12:05:14.609Z,99897.84
2023-09-30T12:07:44.731Z,99887.56
2023-09-30T12:10:11.635Z,99888.25
2023-09-30T12:12:41.177Z,99888.53
2023-09-30T12:15:10.359Z,99884.41
2023-09-30T12:17:38.415Z,99865.97
2023-09-30T12:20:07.849Z,99876.38
2023-09-30T12:22:34.752Z,99872.84
2023-09-30T12:25:02.278Z,99876.63
2023-09-30T12:27:30.581Z,99870.63
2023-09-30T12:29:59.338Z,99879.38
2023-09-30T12:32:27.038Z,99867.00
2023-09-30T12:34:54.748Z,99867.00
2023-09-30T12:37:21.646Z,99865.38
2023-09-30T12:39:49.033Z,99859.72
2023-09-30T12:42:16.994Z,99863.34
2023-09-30T12:44:43.911Z,99870.97
2023-09-30T12:47:10.922Z,99864.03
2023-09-30T12:49:39.003Z,99861.16
2023-09-30T12:52:06.169Z,99856.25
2023-09-30T12:54:33.207Z,99858.16
2023-09-30T12:57:00.154Z,99857.47
2023-09-30T12:59:29.058Z,99856.97
2023-09-30T13:01:56.134Z,99855.19
2023-09-30T13:04:25.040Z,99855.31
2023-09-30T13:06:52.059Z,99846.66
2023-09-30T13:09:21.282Z,99856.44
2023-09-30T13:11:48.957Z,99848.66
2023-09-30T13:14:17.088Z,99845.06
2023-09-30T13:16:45.297Z,99845.66
2023-09-30T13:19:13.093Z,99843.44
2023-09-30T13:21:41.995Z,99831.06
2023-09-30T13:24:11.480Z,99832.91
2023-09-30T13:26:38.439Z,99832.41
2023-09-30T13:29:06.404Z,99835.47
2023-09-30T13:31:33.823Z,99830.91
2023-09-30T13:34:00.985Z,99816.44
2023-09-30T13:36:27.978Z,99814.56
2023-09-30T13:38:54.966Z,99828.38
2023-09-30T13:41:22.037Z,99823.34
2023-09-30T13:43:49.189Z,99815.75
2023-09-30T13:46:17.248Z,99814.69
2023-09-30T13:48:44.435Z,99819.09
2023-09-30T13:51:18.276Z,99812.28
2023-09-30T13:53:45.393Z,99816.84
2023-09-30T13:56:12.863Z,99809.03
2023-09-30T13:58:42.220Z,99806.25
2023-09-30T14:01:09.279Z,99809.56
2023-09-30T14:03:42.130Z,99805.59
2023-09-30T14:06:16.351Z,99809.56
2023-09-30T14:08:48.035Z,99805.97
2023-09-30T14:11:22.497Z,99806.19
2023-09-30T14:13:50.318Z,99808.88
2023-09-30T14:16:17.606Z,99802.69
2023-09-30T14:18:46.415Z,99795.91
2023-09-30T14:21:13.390Z,99797.66
2023-09-30T14:23:42.271Z,99800.34
2023-09-30T14:26:12.288Z,99804.31
2023-09-30T14:28:39.411Z,99797.19
2023-09-30T14:31:09.071Z,99794.28
2023-09-30T14:33:36.122Z,99798.47
2023-09-30T14:36:03.801Z,99789.28
2023-09-30T14:38:30.774Z,99790.06
2023-09-30T14:41:00.551Z,99788.91
2023-09-30T14:43:30.599Z,99798.94
2023-09-30T14:45:58.305Z,99795.44
2023-09-30T14:48:28.411Z,99788.31
2023-09-30T14:50:56.364Z,99790.44
2023-09-30T14:53:25.751Z,99795.81
2023-09-30T14:55:53.976Z,99792.16
2023-09-30T14:58:21.007Z,99786.47
2023-09-30T15:00:49.054Z,99786.91
2023-09-30T15:03:16.120Z,99790.28
2023-09-30T15:05:47.069Z,99790.75
2023-09-30T15:08:13.955Z,99788.75
2023-09-30T15:10:45.701Z,99788.66
2023-09-30T15:13:13.155Z,99787.66
2023-09-30T15:15:41.141Z,99795.00
2023-09-30T15:18:08.226Z,99791.97
2023-09-30T15:20:45.123Z,99779.25
2023-09-30T15:23:15.304Z,99779.94
2023-09-30T15:25:43.970Z,99787.25
2023-09-30T15:28:11.356Z,99781.75
2023-09-30T15:30:38.378Z,99782.81
2023-09-30T15:33:05.651Z,99780.00
2023-09-30T15:35:32.584Z,99784.19
2023-09-30T15:37:59.776Z,99780.09
2023-09-30T15:40:27.126Z,99775.97
2023-09-30T15:42:54.059Z,99781.22
2023-09-30T15:45:21.135Z,99776.09
2023-09-30T15:47:50.866Z,99781.44
2023-09-30T15:50:18.335Z,99777.34
2023-09-30T15:52:46.166Z,99777.00
2023-09-30T15:55:13.237Z,99769.63
2023-09-30T15:57:43.829Z,99772.78
2023-09-30T16:00:11.686Z,99775.91
2023-09-30T16:02:38.895Z,99778.47
2023-09-30T16:05:06.081Z,99775.41
2023-09-30T16:07:33.195Z,99779.31
2023-09-30T16:10:00.269Z,99774.66
2023-09-30T16:12:27.354Z,99777.75
2023-09-30T16:14:57.472Z,99768.78
2023-09-30T16:17:24.335Z,99769.66
2023-09-30T16:19:51.378Z,99772.41
2023-09-30T16:22:18.298Z,99762.38
2023-09-30T16:24:46.619Z,99767.00
2023-09-30T16:27:13.585Z,99756.50
2023-09-30T16:29:40.641Z,99767.47
2023-09-30T16:32:10.495Z,99767.88
2023-09-30T16:34:37.561Z,99765.00
2023-09-30T16:37:18.478Z,99765.00
2023-09-30T16:39:48.573Z,99762.53
2023-09-30T16:42:15.504Z,99764.59
2023-09-30T16:44:46.120Z,99760.97
2023-09-30T16:47:13.067Z,99767.59
2023-09-30T16:49:40.007Z,99756.88
2023-09-30T16:52:07.092Z,99751.97
2023-09-30T16:54:34.452Z,99754.06
2023-09-30T16:57:01.480Z,99751.06
2023-09-30T16:59:30.273Z,99749.72
2023-09-30T17:01:57.308Z,99748.91
2023-09-30T17:04:24.315Z,99745.34
2023-09-30T17:06:51.471Z,99732.25
2023-09-30T17:09:18.546Z,99738.88
2023-09-30T17:11:45.438Z,99735.97
2023-09-30T17:14:15.432Z,99729.59
2023-09-30T17:16:42.348Z,99733.88
2023-09-30T17:19:09.806Z,99730.97
2023-09-30T17:21:39.013Z,99728.09
2023-09-30T17:24:06.162Z,99724.81
2023-09-30T17:26:33.093Z,99724.25
2023-09-30T17:28:59.970Z,99725.69
2023-09-30T17:31:27.763Z,99713.38
2023-09-30T17:33:54.922Z,99719.16
2023-09-30T17:36:21.905Z,99714.84
2023-09-30T17:38:49.633Z,99715.44
2023-09-30T17:41:16.560Z,99717.06
2023-09-30T17:43:44.266Z,99708.44
2023-09-30T17:46:16.157Z,99710.53
2023-09-30T17:48:46.761Z,99700.88
2023-09-30T17:51:15.760Z,99708.31
2023-09-30T17:53:42.706Z,99695.34
2023-09-30T17:56:19.114Z,99691.94
2023-09-30T17:58:46.199Z,99690.28
2023-09-30T18:01:20.610Z,99680.63
2023-09-30T18:03:48.692Z,99694.22
2023-09-30T18:06:15.724Z,99689.69
2023-09-30T18:08:43.205Z,99683.78
2023-09-30T18:11:10.845Z,99685.63
2023-09-30T18:13:39.909Z,99685.22
2023-09-30T18:16:08.198Z,99684.41
2023-09-30T18:18:36.314Z,99676.59
2023-09-30T18:21:03.612Z,99672.75
2023-09-30T18:23:30.701Z,99677.50
2023-09-30T18:25:57.628Z,99675.09
2023-09-30T18:28:25.305Z,99668.53
2023-09-30T18:30:52.283Z,99670.16
2023-09-30T18:33:20.069Z,99668.53
2023-09-30T18:35:47.198Z,99663.19
2023-09-30T18:38:15.223Z,99666.88
2023-09-30T18:40:44.325Z,99663.63
2023-09-30T18:43:15.190Z,99667.28
2023-09-30T18:45:42.980Z,99661.72
2023-09-30T18:48:11.584Z,99660.22
2023-09-30T18:50:45.831Z,99655.69
2023-09-30T18:53:14.027Z,99658.94
2023-09-30T18:55:42.047Z,99657.69
2023-09-30T18:58:10.701Z,99651.91
2023-09-30T19:00:39.797Z,99649.44
2023-09-30T19:03:09.731Z,99650.03
2023-09-30T19:05:37.891Z,99647.16
2023-09-30T19:08:05.440Z,99646.91
2023-09-30T19:10:32.947Z,99646.91
2023-09-30T19:13:00.328Z,99636.81
2023-09-30T19:15:28.418Z,99645.66
2023-09-30T19:17:55.593Z,99636.22
2023-09-30T19:20:23.926Z,99633.13
2023-09-30T19:22:54.732Z,99632.09
2023-09-30T19:25:22.042Z,99628.38
2023-09-30T19:27:49.009Z,99627.94
2023-09-30T19:30:16.130Z,99624.44
2023-09-30T19:32:43.290Z,99627.13
2023-09-30T19:35:10.487Z,99624.66
2023-09-30T19:37:37.599Z,99616.84
2023-09-30T19:40:05.184Z,99623.03
2023-09-30T19:42:32.402Z,99614.19
2023-09-30T19:45:00.825Z,99609.88
2023-09-30T19:47:28.264Z,99622.22
2023-09-30T19:49:55.904Z,99617.69
2023-09-30T19:52:32.742Z,99601.25
2023-09-30T19:54:59.799Z,99612.66
2023-09-30T19:57:36.357Z,99612.44
2023-09-30T20:00:05.494Z,99615.28
2023-09-30T20:02:32.594Z,99611.94
2023-09-30T20:04:59.595Z,99612.34
2023-09-30T20:07:26.537Z,99616.75
2023-09-30T20:09:54.356Z,99608.38
2023-09-30T20:12:22.760Z,99607.91
2023-09-30T20:14:49.736Z,99610.00
2023-09-30T20:17:19.365Z,99602.34
2023-09-30T20:19:47.971Z,99602.16
2023-09-30T20:22:15.023Z,99607.91
2023-09-30T20:24:42.136Z,99602.16
2023-09-30T20:27:11.292Z,99607.72
2023-09-30T20:29:38.220Z,99602.97
2023-09-30T20:32:05.370Z,99604.28
2023-09-30T20:34:32.297Z,99600.59
2023-09-30T20:36:59.581Z,99600.72
2023-09-30T20:39:26.680Z,99590.19
2023-09-30T20:41:53.577Z,99587.75
2023-09-30T20:44:20.491Z,99586.31
2023-09-30T20:46:49.051Z,99583.25
2023-09-30T20:49:19.314Z,99582.69
2023-09-30T20:51:46.922Z,99584.38
2023-09-30T20:54:14.022Z,99579.63
2023-09-30T20:56:40.955Z,99579.63
2023-09-30T20:59:08.166Z,99583.63
2023-09-30T21:01:35.248Z,99579.31
2023-09-30T21:04:04.909Z,99576.03
2023-09-30T21:06:31.806Z,99576.03
2023-09-30T21:08:58.922Z,99572.78
2023-09-30T21:11:25.941Z,99569.34
2023-09-30T21:13:53.011Z,99565.41
2023-09-30T21:16:20.147Z,99566.03
2023-09-30T21:18:47.206Z,99566.84
2023-09-30T21:21:14.281Z,99555.13
2023-09-30T21:23:41.477Z,99560.47
2023-09-30T21:26:15.042Z,99559.84
2023-09-30T21:28:47.479Z,99554.94
2023-09-30T21:31:17.953Z,99551.66
2023-09-30T21:33:45.922Z,99555.16
2023-09-30T21:36:13.681Z,99548.22
2023-09-30T21:38:40.938Z,99553.56
2023-09-30T21:41:25.190Z,99551.91
2023-09-30T21:43:52.615Z,99547.84
2023-09-30T21:46:19.785Z,99541.88
2023-09-30T21:48:48.021Z,99542.69
2023-09-30T21:51:15.660Z,99542.06
2023-09-30T21:53:42.569Z,99537.22
2023-09-30T21:56:09.592Z,99539.88
2023-09-30T21:58:36.449Z,99540.06
2023-09-30T22:01:06.822Z,99536.94
2023-09-30T22:03:34.203Z,99534.25
2023-09-30T22:06:01.710Z,99536.72
2023-09-30T22:08:29.769Z,99529.34
2023-09-30T22:10:56.746Z,99530.97
2023-09-30T22:13:25.984Z,99521.91
2023-09-30T22:15:56.038Z,99519.84
2023-09-30T22:18:26.430Z,99519.03
2023-09-30T22:20:53.928Z,99516.78
2023-09-30T22:23:20.986Z,99513.69
2023-09-30T22:25:49.963Z,99514.97
2023-09-30T22:28:17.370Z,99505.34
2023-09-30T22:30:44.411Z,99504.72
2023-09-30T22:33:11.400Z,99509.63
2023-09-30T22:35:42.031Z,99510.06
2023-09-30T22:38:12.702Z,99508.84
2023-09-30T22:40:39.737Z,99501.91
2023-09-30T22:43:06.894Z,99502.94
2023-09-30T22:45:34.670Z,99493.44
2023-09-30T22:48:01.847Z,99496.28
2023-09-30T22:50:28.840Z,99494.03
2023-09-30T22:52:56.581Z,99488.31
2023-09-30T22:55:24.872Z,99484.69
2023-09-30T22:57:56.567Z,99489.59
2023-09-30T23:00:28.461Z,99483.78
2023-09-30T23:02:58.911Z,99482.16
2023-09-30T23:05:29.466Z,99488.16
2023-09-30T23:07:56.740Z,99483.47
2023-09-30T23:10:24.184Z,99483.47
2023-09-30T23:12:51.490Z,99485.09
2023-09-30T23:15:19.964Z,99469.53
2023-09-30T23:17:51.080Z,99476.34
2023-09-30T23:20:21.859Z,99473.69
2023-09-30T23:22:52.904Z,99470.78
2023-09-30T23:25:24.572Z,99471.00
2023-09-30T23:27:51.667Z,99468.75
2023-09-30T23:30:19.140Z,99468.41
2023-09-30T23:32:49.329Z,99464.69
2023-09-30T23:35:17.688Z,99458.53
2023-09-30T23:37:58.464Z,99465.94
2023-09-30T23:40:25.760Z,99462.69
2023-09-30T23:42:55.372Z,99456.31
2023-09-30T23:45:23.248Z,99458.97
2023-09-30T23:47:52.612Z,99463.13
2023-09-30T23:50:20.588Z,99460.28
2023-09-30T23:52:54.840Z,99458.66
2023-09-30T23:55:26.722Z,99454.94
2023-09-30T23:57:58.144Z,99457.63
